CheckWX is a tool to help pilots better visualize weather data.  It is not intended as a substitute for an official pre-flight weather briefing.

08:18:54 UTC

CYWL TAF
Williams Lake Airport
Williams Lake, Canada
TAF CYWL 270638Z 2707/2719 13008KT P6SM SCT080 OVC140 TEMPO 2707/2719 OVC080 RMK NXT FCST BY 271300Z

Feb-27@
07:00 UTC

Feb-27 @ 07:00 UTC

Feb-27@
19:00 UTC

Feb-27 @ 19:00 UTC

TAF CYWL 270638Z 2707/2719 13008KT P6SM SCT080 OVC140
Wind
  • 130° at 8 KTS
Cloud Levels
  • Scattered at 8,000' AGL
  • Overcast at 14,000' AGL

Feb-27@
07:00 UTC

Feb-27 @ 07:00 UTC

Feb-27@
19:00 UTC

Feb-27 @ 19:00 UTC

TEMPO 2707/2719 OVC080 RMK NXT FCST BY 271300Z

Temporary

Temporary Changes expected for less than half the time period

Cloud Levels
  • Overcast at 8,000' AGL